ECJOA DAAG-LEVC
Flight info
| Callsign | ECJOA |
|---|---|
| Flight time | N/A |
| Altitude | 28000 |
| Route | SADAF1D SADAF L45 VLC |
| Aircraft | TBM8/L-SDFGRWY/S |
Departure
| Time | 2026-05-08 07:42 |
|---|---|
| Airport | Houari Boumediene Airport (DAAG) |
Arrival
| Time | N/A |
|---|---|
| Airport | Valencia Airport (LEVC) |
| Time | Latitude | Longitude | Altitude | Speed | Heading |
|---|---|---|---|---|---|
| 2026-05-08 07:23 | 36.69617 | 3.21491 | 72 ft | 0 kts | 28° |
| 2026-05-08 07:39 | 36.69619 | 3.21492 | 72 ft | 2 kts | 41° |
| 2026-05-08 07:39 | 36.69615 | 3.21509 | 69 ft | 2 kts | 138° |
| 2026-05-08 07:40 | 36.69575 | 3.21508 | 72 ft | 17 kts | 202° |
| 2026-05-08 07:40 | 36.69441 | 3.21474 | 72 ft | 21 kts | 185° |
| 2026-05-08 07:40 | 36.69330 | 3.21366 | 71 ft | 21 kts | 228° |
| 2026-05-08 07:40 | 36.69268 | 3.21274 | 70 ft | 23 kts | 231° |
| 2026-05-08 07:41 | 36.69144 | 3.21076 | 70 ft | 33 kts | 234° |
| 2026-05-08 07:41 | 36.69116 | 3.20842 | 71 ft | 40 kts | 269° |
| 2026-05-08 07:41 | 36.69129 | 3.20227 | 68 ft | 99 kts | 271° |
| 2026-05-08 07:41 | 36.69142 | 3.19209 | 82 ft | 132 kts | 271° |
| 2026-05-08 07:42 | 36.69189 | 3.17987 | 104 ft | 149 kts | 272° |
| 2026-05-08 07:42 | 36.69255 | 3.16633 | 265 ft | 158 kts | 272° |
| 2026-05-08 07:42 | 36.69284 | 3.15295 | 708 ft | 151 kts | 270° |
| 2026-05-08 07:42 | 36.69302 | 3.14017 | 1176 ft | 145 kts | 270° |
| 2026-05-08 07:43 | 36.69288 | 3.12792 | 1670 ft | 138 kts | 256° |
| 2026-05-08 07:43 | 36.69115 | 3.11652 | 2148 ft | 134 kts | 271° |
| 2026-05-08 07:43 | 36.69520 | 3.10641 | 2609 ft | 137 kts | 316° |
| 2026-05-08 07:43 | 36.70293 | 3.09965 | 3055 ft | 136 kts | 320° |
| 2026-05-08 07:44 | 36.71059 | 3.09285 | 3499 ft | 134 kts | 320° |
| 2026-05-08 07:44 | 36.71822 | 3.08619 | 3938 ft | 133 kts | 320° |
| 2026-05-08 07:44 | 36.72718 | 3.08309 | 4349 ft | 141 kts | 357° |
| 2026-05-08 07:44 | 36.73727 | 3.08350 | 4714 ft | 149 kts | 356° |
| 2026-05-08 07:45 | 36.74783 | 3.08363 | 5086 ft | 155 kts | 356° |
| 2026-05-08 07:45 | 36.75877 | 3.08391 | 5456 ft | 159 kts | 356° |
| 2026-05-08 07:45 | 36.76993 | 3.08430 | 5815 ft | 162 kts | 356° |
| 2026-05-08 07:45 | 36.78125 | 3.08474 | 6174 ft | 163 kts | 356° |
| 2026-05-08 07:46 | 36.79265 | 3.08526 | 6520 ft | 164 kts | 356° |
| 2026-05-08 07:46 | 36.80408 | 3.08584 | 6853 ft | 165 kts | 356° |
| 2026-05-08 07:46 | 36.81556 | 3.08658 | 7187 ft | 165 kts | 356° |
| 2026-05-08 07:46 | 36.82708 | 3.08747 | 7525 ft | 166 kts | 356° |
| 2026-05-08 07:47 | 36.83863 | 3.08845 | 7867 ft | 166 kts | 355° |
| 2026-05-08 07:47 | 36.84997 | 3.08750 | 8216 ft | 161 kts | 340° |
| 2026-05-08 07:47 | 36.85993 | 3.08257 | 8568 ft | 153 kts | 321° |
| 2026-05-08 07:47 | 36.86897 | 3.07563 | 8923 ft | 152 kts | 320° |
| 2026-05-08 07:48 | 36.87796 | 3.06858 | 9282 ft | 152 kts | 319° |
| 2026-05-08 07:48 | 36.88691 | 3.06151 | 9641 ft | 152 kts | 319° |
| 2026-05-08 07:48 | 36.89585 | 3.05447 | 9992 ft | 152 kts | 319° |
| 2026-05-08 07:48 | 36.90477 | 3.04744 | 10316 ft | 151 kts | 318° |
| 2026-05-08 07:49 | 36.91367 | 3.04042 | 10647 ft | 151 kts | 319° |
| 2026-05-08 07:49 | 36.92255 | 3.03341 | 10982 ft | 151 kts | 318° |
| 2026-05-08 07:49 | 36.93130 | 3.02651 | 11313 ft | 151 kts | 318° |
| 2026-05-08 07:49 | 36.94015 | 3.01953 | 11655 ft | 150 kts | 318° |
| 2026-05-08 07:50 | 36.94902 | 3.01254 | 11998 ft | 150 kts | 318° |
| 2026-05-08 07:50 | 36.95784 | 3.00558 | 12347 ft | 150 kts | 318° |